createdAt,value
2023-05-15T00:01:45.682Z,5.80
2023-05-15T00:04:12.948Z,4.83
2023-05-15T00:06:39.595Z,5.70
2023-05-15T00:09:06.232Z,4.90
2023-05-15T00:11:32.746Z,5.77
2023-05-15T00:13:59.406Z,4.67
2023-05-15T00:16:25.993Z,5.23
2023-05-15T00:18:53.079Z,6.30
2023-05-15T00:21:19.665Z,4.63
2023-05-15T00:23:47.478Z,6.33
2023-05-15T00:26:15.732Z,4.80
2023-05-15T00:28:42.463Z,4.43
2023-05-15T00:31:09.069Z,5.60
2023-05-15T00:33:35.642Z,5.23
2023-05-15T00:36:03.207Z,5.50
2023-05-15T00:38:30.856Z,5.37
2023-05-15T00:40:57.533Z,5.30
2023-05-15T00:43:26.443Z,6.23
2023-05-15T00:45:54.650Z,5.50
2023-05-15T00:48:23.217Z,5.47
2023-05-15T00:50:51.692Z,5.40
2023-05-15T00:53:18.769Z,5.03
2023-05-15T00:55:46.708Z,4.97
2023-05-15T00:58:14.810Z,4.80
2023-05-15T01:00:43.292Z,4.77
2023-05-15T01:03:10.096Z,5.83
2023-05-15T01:05:37.107Z,5.70
2023-05-15T01:08:26.980Z,5.90
2023-05-15T01:10:55.437Z,5.80
2023-05-15T01:13:23.163Z,5.30
2023-05-15T01:15:50.587Z,5.77
2023-05-15T01:18:17.478Z,5.40
2023-05-15T01:21:04.797Z,5.30
2023-05-15T01:24:02.425Z,5.97
2023-05-15T01:26:50.714Z,6.70
2023-05-15T01:29:25.936Z,6.40
2023-05-15T01:32:02.291Z,6.30
2023-05-15T01:34:43.961Z,5.37
2023-05-15T01:37:13.338Z,6.00
2023-05-15T01:39:44.799Z,6.80
2023-05-15T01:42:15.549Z,5.50
2023-05-15T01:44:49.189Z,5.73
2023-05-15T01:47:21.544Z,5.93
2023-05-15T01:49:50.968Z,5.40
2023-05-15T01:52:28.049Z,5.80
2023-05-15T01:54:55.265Z,5.20
2023-05-15T01:57:23.406Z,5.50
2023-05-15T01:59:51.476Z,6.50
2023-05-15T02:02:19.432Z,5.70
2023-05-15T02:04:47.413Z,5.20
2023-05-15T02:07:15.618Z,5.60
2023-05-15T02:09:43.983Z,5.63
2023-05-15T02:12:11.658Z,5.53
2023-05-15T02:14:41.347Z,5.73
2023-05-15T02:17:08.384Z,6.00
2023-05-15T02:19:35.072Z,6.50
2023-05-15T02:22:05.505Z,5.90
2023-05-15T02:24:33.331Z,5.90
2023-05-15T02:27:20.397Z,6.23
2023-05-15T02:29:55.044Z,5.80
2023-05-15T02:32:39.880Z,6.33
2023-05-15T02:35:17.916Z,5.80
2023-05-15T02:37:48.360Z,5.77
2023-05-15T02:40:16.225Z,5.80
2023-05-15T02:42:45.703Z,6.20
2023-05-15T02:45:12.963Z,5.80
2023-05-15T02:47:40.725Z,5.77
2023-05-15T02:50:08.751Z,5.30
2023-05-15T02:52:35.601Z,6.60
2023-05-15T02:55:02.416Z,6.07
2023-05-15T02:57:29.394Z,5.93
2023-05-15T02:59:57.504Z,6.03
2023-05-15T03:02:24.474Z,5.87
2023-05-15T03:04:51.242Z,6.00
2023-05-15T03:07:17.883Z,6.50
2023-05-15T03:09:44.548Z,6.20
2023-05-15T03:12:11.515Z,6.40
2023-05-15T03:14:38.090Z,5.77
2023-05-15T03:17:05.081Z,5.73
2023-05-15T03:19:32.396Z,5.97
2023-05-15T03:22:00.220Z,6.60
2023-05-15T03:24:26.806Z,6.60
2023-05-15T03:26:54.125Z,6.80
2023-05-15T03:29:20.703Z,6.60
2023-05-15T03:31:47.408Z,6.27
2023-05-15T03:34:13.945Z,6.10
2023-05-15T03:36:40.960Z,5.87
2023-05-15T03:39:07.592Z,5.77
2023-05-15T03:41:34.512Z,6.03
2023-05-15T03:44:01.108Z,5.53
2023-05-15T03:46:31.325Z,6.30
2023-05-15T03:48:58.309Z,5.70
2023-05-15T03:51:26.381Z,6.33
2023-05-15T03:53:54.160Z,6.60
2023-05-15T03:56:22.991Z,5.37
2023-05-15T03:58:49.561Z,5.80
2023-05-15T04:01:16.102Z,6.57
2023-05-15T04:03:42.776Z,7.20
2023-05-15T04:06:09.660Z,6.53
2023-05-15T04:08:36.164Z,7.00
2023-05-15T04:11:03.251Z,5.70
2023-05-15T04:13:29.815Z,6.80
2023-05-15T04:15:56.505Z,6.90
2023-05-15T04:18:23.093Z,6.47
2023-05-15T04:20:49.737Z,6.30
2023-05-15T04:23:16.686Z,7.20
2023-05-15T04:25:46.485Z,6.27
2023-05-15T04:28:13.645Z,6.57
2023-05-15T04:30:40.224Z,6.10
2023-05-15T04:33:07.254Z,7.23
2023-05-15T04:35:34.169Z,6.90
2023-05-15T04:38:00.984Z,6.97
2023-05-15T04:40:27.574Z,6.80
2023-05-15T04:42:54.406Z,7.23
2023-05-15T04:45:21.525Z,6.83
2023-05-15T04:47:48.154Z,5.77
2023-05-15T04:50:14.885Z,5.77
2023-05-15T04:52:43.096Z,7.20
2023-05-15T04:55:09.816Z,5.80
2023-05-15T04:57:36.350Z,5.90
2023-05-15T05:00:10.197Z,6.00
2023-05-15T05:02:36.773Z,6.10
2023-05-15T05:05:03.967Z,6.30
2023-05-15T05:07:30.636Z,5.70
2023-05-15T05:09:57.347Z,5.80
2023-05-15T05:12:25.921Z,5.90
2023-05-15T05:14:55.344Z,6.20
2023-05-15T05:17:22.066Z,6.17
2023-05-15T05:19:48.827Z,7.50
2023-05-15T05:22:18.248Z,6.70
2023-05-15T05:24:44.795Z,6.70
2023-05-15T05:27:11.674Z,6.33
2023-05-15T05:29:39.849Z,6.87
2023-05-15T05:32:07.373Z,7.27
2023-05-15T05:34:34.359Z,7.53
2023-05-15T05:37:00.957Z,6.60
2023-05-15T05:39:27.497Z,7.77
2023-05-15T05:41:54.010Z,6.90
2023-05-15T05:44:20.579Z,7.03
2023-05-15T05:46:47.494Z,7.10
2023-05-15T05:49:14.028Z,6.97
2023-05-15T05:51:40.600Z,7.10
2023-05-15T05:54:07.145Z,7.27
2023-05-15T05:56:33.687Z,6.37
2023-05-15T05:59:01.931Z,7.30
2023-05-15T06:01:29.107Z,7.37
2023-05-15T06:03:55.977Z,7.30
2023-05-15T06:06:22.838Z,6.90
2023-05-15T06:08:49.410Z,7.60
2023-05-15T06:11:16.089Z,8.00
2023-05-15T06:13:43.411Z,7.10
2023-05-15T06:16:10.506Z,6.20
2023-05-15T06:18:37.143Z,6.70
2023-05-15T06:21:03.897Z,6.17
2023-05-15T06:23:30.514Z,6.77
2023-05-15T06:25:57.145Z,6.00
2023-05-15T06:28:23.721Z,6.30
2023-05-15T06:30:50.350Z,5.90
2023-05-15T06:33:16.957Z,6.00
2023-05-15T06:35:43.673Z,6.23
2023-05-15T06:38:10.254Z,5.53
2023-05-15T06:40:36.825Z,5.80
2023-05-15T06:43:04.371Z,6.10
2023-05-15T06:45:31.358Z,7.57
2023-05-15T06:48:00.036Z,6.03
2023-05-15T06:50:28.106Z,5.43
2023-05-15T06:52:55.024Z,6.70
2023-05-15T06:55:21.539Z,4.73
2023-05-15T06:57:48.108Z,5.40
2023-05-15T07:00:15.142Z,5.10
2023-05-15T07:02:41.754Z,5.50
2023-05-15T07:05:08.808Z,4.53
2023-05-15T07:07:35.634Z,4.50
2023-05-15T07:10:02.141Z,4.07
2023-05-15T07:12:28.743Z,3.70
2023-05-15T07:14:55.308Z,4.18
2023-05-15T07:17:21.985Z,4.10
2023-05-15T07:19:48.819Z,4.40
2023-05-15T07:22:15.433Z,3.58
2023-05-15T07:24:42.304Z,3.40
2023-05-15T07:27:10.410Z,3.50
2023-05-15T07:29:36.946Z,4.05
2023-05-15T07:32:03.771Z,3.97
2023-05-15T07:34:30.405Z,3.70
2023-05-15T07:36:56.938Z,4.00
2023-05-15T07:39:23.628Z,3.53
2023-05-15T07:41:50.303Z,3.78
2023-05-15T07:44:17.343Z,3.55
2023-05-15T07:46:45.446Z,3.55
2023-05-15T07:49:12.234Z,3.15
2023-05-15T07:51:41.897Z,3.08
2023-05-15T07:54:08.408Z,3.58
2023-05-15T07:56:35.235Z,2.70
2023-05-15T07:59:02.195Z,2.95
2023-05-15T08:01:30.568Z,3.10
2023-05-15T08:03:58.474Z,3.25
2023-05-15T08:06:25.225Z,3.15
2023-05-15T08:08:51.714Z,3.20
2023-05-15T08:11:18.954Z,4.03
2023-05-15T08:13:45.535Z,3.67
2023-05-15T08:16:12.702Z,3.50
2023-05-15T08:18:39.270Z,3.75
2023-05-15T08:21:06.691Z,3.70
2023-05-15T08:23:33.251Z,3.30
2023-05-15T08:26:00.197Z,3.67
2023-05-15T08:28:26.716Z,3.67
2023-05-15T08:30:53.275Z,3.70
2023-05-15T08:33:19.770Z,3.13
2023-05-15T08:35:46.335Z,4.30
2023-05-15T08:38:12.918Z,4.50
2023-05-15T08:40:41.433Z,3.67
2023-05-15T08:43:15.564Z,3.83
2023-05-15T08:45:43.596Z,3.67
2023-05-15T08:48:20.273Z,3.33
2023-05-15T08:50:48.858Z,3.87
2023-05-15T08:53:16.071Z,4.07
2023-05-15T08:55:43.033Z,3.80
2023-05-15T08:58:10.420Z,2.60
2023-05-15T09:00:38.686Z,3.93
2023-05-15T09:03:05.879Z,3.80
2023-05-15T09:05:33.430Z,3.33
2023-05-15T09:08:04.051Z,3.73
2023-05-15T09:10:31.846Z,3.50
2023-05-15T09:13:01.849Z,3.67
2023-05-15T09:15:30.596Z,3.40
2023-05-15T09:17:58.123Z,3.10
2023-05-15T09:20:31.561Z,3.10
2023-05-15T09:22:59.545Z,3.70
2023-05-15T09:25:34.458Z,4.57
2023-05-15T09:28:01.199Z,3.47
2023-05-15T09:30:27.921Z,4.50
2023-05-15T09:32:56.495Z,3.63
2023-05-15T09:35:33.518Z,4.40
2023-05-15T09:38:01.774Z,3.60
2023-05-15T09:40:31.081Z,3.60
2023-05-15T09:42:58.560Z,3.90
2023-05-15T09:45:27.221Z,3.57
2023-05-15T09:47:54.244Z,3.33
2023-05-15T09:50:23.985Z,4.47
2023-05-15T09:52:51.773Z,3.73
2023-05-15T09:55:21.355Z,3.53
2023-05-15T09:58:13.983Z,3.80
2023-05-15T10:00:48.051Z,4.00
2023-05-15T10:03:19.522Z,4.23
2023-05-15T10:05:46.378Z,3.53
2023-05-15T10:08:14.836Z,3.43
2023-05-15T10:10:41.962Z,3.97
2023-05-15T10:13:10.004Z,3.30
2023-05-15T10:15:37.251Z,3.53
2023-05-15T10:18:04.900Z,3.40
2023-05-15T10:20:35.285Z,3.47
2023-05-15T10:23:04.845Z,3.60
2023-05-15T10:25:53.178Z,3.20
2023-05-15T10:28:20.329Z,3.07
2023-05-15T10:30:48.038Z,3.63
2023-05-15T10:33:15.534Z,3.17
2023-05-15T10:35:42.816Z,3.50
2023-05-15T10:38:14.052Z,3.10
2023-05-15T10:40:41.261Z,3.60
2023-05-15T10:43:09.372Z,3.60
2023-05-15T10:45:36.180Z,3.70
2023-05-15T10:48:05.428Z,3.63
2023-05-15T10:50:32.266Z,3.33
2023-05-15T10:53:00.370Z,3.50
2023-05-15T10:55:27.149Z,3.53
2023-05-15T10:57:55.228Z,3.40
2023-05-15T11:00:27.222Z,3.30
2023-05-15T11:02:56.492Z,4.10
2023-05-15T11:05:24.326Z,3.83
2023-05-15T11:08:15.761Z,3.63
2023-05-15T11:10:42.426Z,3.37
2023-05-15T11:13:09.157Z,4.13
2023-05-15T11:15:44.077Z,4.20
2023-05-15T11:18:10.855Z,4.23
2023-05-15T11:20:40.338Z,4.30
2023-05-15T11:23:07.134Z,4.17
2023-05-15T11:25:35.646Z,4.13
2023-05-15T11:28:05.338Z,4.20
2023-05-15T11:30:41.489Z,3.97
2023-05-15T11:33:13.280Z,4.50
2023-05-15T11:35:47.973Z,4.13
2023-05-15T11:38:16.595Z,3.97
2023-05-15T11:40:47.700Z,4.10
2023-05-15T11:43:22.186Z,3.87
2023-05-15T11:45:56.066Z,3.50
2023-05-15T11:48:24.787Z,4.10
2023-05-15T11:50:54.219Z,4.60
2023-05-15T11:53:23.046Z,4.00
2023-05-15T11:55:52.767Z,4.50
2023-05-15T11:58:23.082Z,4.57
2023-05-15T12:00:51.564Z,4.83
2023-05-15T12:03:23.888Z,4.50
2023-05-15T12:05:58.886Z,5.10
2023-05-15T12:08:30.576Z,5.43
2023-05-15T12:10:58.799Z,5.00
2023-05-15T12:13:25.385Z,5.00
2023-05-15T12:15:52.022Z,6.03
2023-05-15T12:18:18.644Z,5.47
2023-05-15T12:20:46.688Z,6.63
2023-05-15T12:23:17.318Z,5.30
2023-05-15T12:25:46.696Z,5.67
2023-05-15T12:28:14.474Z,5.00
2023-05-15T12:30:42.294Z,5.20
2023-05-15T12:33:10.808Z,6.20
2023-05-15T12:35:42.067Z,4.73
2023-05-15T12:38:13.796Z,5.30
2023-05-15T12:40:40.820Z,5.10
2023-05-15T12:43:08.703Z,4.40
2023-05-15T12:45:38.755Z,6.23
2023-05-15T12:48:07.182Z,5.30
2023-05-15T12:50:35.720Z,5.47
2023-05-15T12:53:04.019Z,5.60
2023-05-15T12:55:33.063Z,5.97
2023-05-15T12:58:02.248Z,4.77
2023-05-15T13:00:29.584Z,5.33
2023-05-15T13:02:57.694Z,5.27
2023-05-15T13:05:28.936Z,4.13
2023-05-15T13:07:57.950Z,4.07
2023-05-15T13:10:25.432Z,3.10
2023-05-15T13:12:53.860Z,2.97
2023-05-15T13:15:25.929Z,3.50
2023-05-15T13:18:03.742Z,3.93
2023-05-15T13:20:41.140Z,3.10
2023-05-15T13:23:08.955Z,3.20
2023-05-15T13:25:35.880Z,2.97
2023-05-15T13:28:05.750Z,2.67
2023-05-15T13:30:34.380Z,3.50
2023-05-15T13:33:01.713Z,2.80
2023-05-15T13:35:28.522Z,2.73
2023-05-15T13:37:56.338Z,2.30
2023-05-15T13:40:23.055Z,2.30
2023-05-15T13:42:50.148Z,2.60
2023-05-15T13:45:17.110Z,2.67
2023-05-15T13:47:44.457Z,2.47
2023-05-15T13:50:15.247Z,2.33
2023-05-15T13:52:43.838Z,2.77
2023-05-15T13:55:11.089Z,2.77
2023-05-15T13:57:41.622Z,2.97
2023-05-15T14:00:13.401Z,3.33
2023-05-15T14:02:41.841Z,2.73
2023-05-15T14:05:09.944Z,3.30
2023-05-15T14:07:37.294Z,4.60
2023-05-15T14:10:05.073Z,4.87
2023-05-15T14:12:32.497Z,4.30
2023-05-15T14:15:00.058Z,3.83
2023-05-15T14:17:27.840Z,3.30
2023-05-15T14:19:54.720Z,3.00
2023-05-15T14:22:24.657Z,2.60
2023-05-15T14:24:55.137Z,2.33
2023-05-15T14:27:21.722Z,2.57
2023-05-15T14:29:49.152Z,2.50
2023-05-15T14:32:16.615Z,1.90
2023-05-15T14:34:43.507Z,2.00
2023-05-15T14:37:10.248Z,2.30
2023-05-15T14:39:37.110Z,2.70
2023-05-15T14:42:04.091Z,2.17
2023-05-15T14:44:30.744Z,2.33
2023-05-15T14:47:12.704Z,2.40
2023-05-15T14:49:40.008Z,2.57
2023-05-15T14:52:12.152Z,3.00
2023-05-15T14:54:40.272Z,2.50
2023-05-15T14:57:07.528Z,3.10
2023-05-15T14:59:34.576Z,2.73
2023-05-15T15:02:01.415Z,3.50
2023-05-15T15:04:30.535Z,3.50
2023-05-15T15:06:57.324Z,3.60
2023-05-15T15:09:25.551Z,3.80
2023-05-15T15:11:53.661Z,4.07
2023-05-15T15:14:20.359Z,3.77
2023-05-15T15:16:47.080Z,5.20
2023-05-15T15:19:16.065Z,4.87
2023-05-15T15:21:44.613Z,5.53
2023-05-15T15:24:11.165Z,7.40
2023-05-15T15:26:37.796Z,6.60
2023-05-15T15:29:04.498Z,5.87
2023-05-15T15:31:32.058Z,6.63
2023-05-15T15:33:59.275Z,6.93
2023-05-15T15:36:25.896Z,7.50
2023-05-15T15:38:52.624Z,7.30
2023-05-15T15:41:21.268Z,6.47
2023-05-15T15:43:47.979Z,6.47
2023-05-15T15:46:14.585Z,6.50
2023-05-15T15:48:41.472Z,6.37
2023-05-15T15:51:08.592Z,6.60
2023-05-15T15:53:35.309Z,6.33
2023-05-15T15:56:01.901Z,7.23
2023-05-15T15:58:29.461Z,6.10
2023-05-15T16:00:56.033Z,5.57
2023-05-15T16:03:23.926Z,5.43
2023-05-15T16:05:51.405Z,4.70
2023-05-15T16:08:18.000Z,3.90
2023-05-15T16:10:44.745Z,5.50
2023-05-15T16:13:11.938Z,4.63
2023-05-15T16:15:38.959Z,5.10
2023-05-15T16:18:05.924Z,5.47
2023-05-15T16:20:34.915Z,5.60
2023-05-15T16:23:02.189Z,6.70
2023-05-15T16:25:31.375Z,7.27
2023-05-15T16:27:57.906Z,7.37
2023-05-15T16:30:33.864Z,7.20
2023-05-15T16:33:07.461Z,6.47
2023-05-15T16:35:36.614Z,5.30
2023-05-15T16:38:04.047Z,4.27
2023-05-15T16:40:30.759Z,4.83
2023-05-15T16:43:00.459Z,4.10
2023-05-15T16:45:27.296Z,4.17
2023-05-15T16:47:54.583Z,5.20
2023-05-15T16:50:21.332Z,5.03
2023-05-15T16:52:49.288Z,5.50
2023-05-15T16:55:17.600Z,5.00
2023-05-15T16:57:45.933Z,4.70
2023-05-15T17:00:13.533Z,5.20
2023-05-15T17:02:42.059Z,5.20
2023-05-15T17:05:10.098Z,4.87
2023-05-15T17:07:37.864Z,5.57
2023-05-15T17:10:06.026Z,4.70
2023-05-15T17:12:32.974Z,5.00
2023-05-15T17:14:59.599Z,4.30
2023-05-15T17:17:26.513Z,5.03
2023-05-15T17:19:53.643Z,5.33
2023-05-15T17:22:20.887Z,4.97
2023-05-15T17:24:50.958Z,6.03
2023-05-15T17:27:19.120Z,5.13
2023-05-15T17:29:45.955Z,5.97
2023-05-15T17:32:12.953Z,5.10
2023-05-15T17:34:39.627Z,4.67
2023-05-15T17:37:06.293Z,4.43
2023-05-15T17:39:33.201Z,4.80
2023-05-15T17:42:00.147Z,4.93
2023-05-15T17:44:29.564Z,4.47
2023-05-15T17:46:57.596Z,4.97
2023-05-15T17:49:24.662Z,4.30
2023-05-15T17:51:51.589Z,4.03
2023-05-15T17:54:18.818Z,3.60
2023-05-15T17:56:45.980Z,3.50
2023-05-15T17:59:12.721Z,4.37
2023-05-15T18:01:39.463Z,4.37
2023-05-15T18:04:06.550Z,3.90
2023-05-15T18:06:36.118Z,3.80
2023-05-15T18:09:03.204Z,4.13
2023-05-15T18:11:29.972Z,4.73
2023-05-15T18:13:56.773Z,4.70
2023-05-15T18:16:23.944Z,4.03
2023-05-15T18:18:52.001Z,4.90
2023-05-15T18:21:19.116Z,5.40
2023-05-15T18:23:45.889Z,4.80
2023-05-15T18:26:13.288Z,5.10
2023-05-15T18:28:40.072Z,5.37
2023-05-15T18:31:07.193Z,6.20
2023-05-15T18:33:36.617Z,5.30
2023-05-15T18:36:05.949Z,6.70
2023-05-15T18:38:34.240Z,6.67
2023-05-15T18:41:00.955Z,6.37
2023-05-15T18:43:28.494Z,5.47
2023-05-15T18:45:55.500Z,5.10
2023-05-15T18:48:22.225Z,6.10
2023-05-15T18:50:49.458Z,5.90
2023-05-15T18:53:16.480Z,6.80
2023-05-15T18:55:43.251Z,6.50
2023-05-15T18:58:10.240Z,6.27
2023-05-15T19:00:38.833Z,6.40
2023-05-15T19:03:08.463Z,7.47
2023-05-15T19:05:35.742Z,6.60
2023-05-15T19:08:03.105Z,7.33
2023-05-15T19:10:30.465Z,5.60
2023-05-15T19:12:57.935Z,6.90
2023-05-15T19:15:25.531Z,7.23
2023-05-15T19:17:52.883Z,5.83
2023-05-15T19:20:20.249Z,7.27
2023-05-15T19:22:46.920Z,7.50
2023-05-15T19:25:13.777Z,7.47
2023-05-15T19:27:40.602Z,7.17
2023-05-15T19:30:09.161Z,7.23
2023-05-15T19:32:36.180Z,7.10
2023-05-15T19:35:03.079Z,8.00
2023-05-15T19:37:29.712Z,7.13
2023-05-15T19:39:56.682Z,8.20
2023-05-15T19:42:23.417Z,6.60
2023-05-15T19:44:50.187Z,8.07
2023-05-15T19:47:16.982Z,9.43
2023-05-15T19:49:43.678Z,9.03
2023-05-15T19:52:10.388Z,7.83
2023-05-15T19:54:37.062Z,7.60
2023-05-15T19:57:03.915Z,7.60
2023-05-15T19:59:30.657Z,8.70
2023-05-15T20:01:58.318Z,8.07
2023-05-15T20:04:25.918Z,7.60
2023-05-15T20:06:52.896Z,8.63
2023-05-15T20:09:19.621Z,8.00
2023-05-15T20:11:46.611Z,8.13
2023-05-15T20:14:15.113Z,7.40
2023-05-15T20:16:41.922Z,8.40
2023-05-15T20:19:11.015Z,7.97
2023-05-15T20:21:38.582Z,7.70
2023-05-15T20:24:05.937Z,8.60
2023-05-15T20:26:32.774Z,7.33
2023-05-15T20:28:59.487Z,7.53
2023-05-15T20:31:26.677Z,6.80
2023-05-15T20:33:57.057Z,7.37
2023-05-15T20:36:25.668Z,6.10
2023-05-15T20:38:52.749Z,6.17
2023-05-15T20:41:21.538Z,6.73
2023-05-15T20:43:49.657Z,6.60
2023-05-15T20:46:16.944Z,6.00
2023-05-15T20:48:43.714Z,5.50
2023-05-15T20:51:10.384Z,5.17
2023-05-15T20:53:37.008Z,5.40
2023-05-15T20:56:03.612Z,5.40
2023-05-15T20:58:30.169Z,5.90
2023-05-15T21:01:00.701Z,4.90
2023-05-15T21:03:27.608Z,5.30
2023-05-15T21:05:56.086Z,4.53
2023-05-15T21:08:23.993Z,5.00
2023-05-15T21:10:52.991Z,4.67
2023-05-15T21:13:20.004Z,5.20
2023-05-15T21:15:46.698Z,5.50
2023-05-15T21:18:13.266Z,5.53
2023-05-15T21:20:40.356Z,6.00
2023-05-15T21:23:07.636Z,5.50
2023-05-15T21:25:34.465Z,6.27
2023-05-15T21:28:01.224Z,5.97
2023-05-15T21:30:28.047Z,5.63
2023-05-15T21:32:54.872Z,6.13
2023-05-15T21:35:21.596Z,5.27
2023-05-15T21:37:48.208Z,6.60
2023-05-15T21:40:14.858Z,6.80
2023-05-15T21:42:42.974Z,5.50
2023-05-15T21:45:09.688Z,6.17
2023-05-15T21:47:36.931Z,4.87
2023-05-15T21:50:03.803Z,5.60
2023-05-15T21:52:30.933Z,4.57
2023-05-15T21:54:57.639Z,4.40
2023-05-15T21:57:24.353Z,3.80
2023-05-15T21:59:51.107Z,4.00
2023-05-15T22:02:17.635Z,3.90
2023-05-15T22:04:44.301Z,2.90
2023-05-15T22:07:11.177Z,2.63
2023-05-15T22:09:37.899Z,2.30
2023-05-15T22:12:04.720Z,2.63
2023-05-15T22:14:31.565Z,2.70
2023-05-15T22:16:58.275Z,2.30
2023-05-15T22:19:33.013Z,2.43
2023-05-15T22:22:01.236Z,2.50
2023-05-15T22:24:27.886Z,2.80
2023-05-15T22:26:54.855Z,2.40
2023-05-15T22:29:21.792Z,2.30
2023-05-15T22:31:48.518Z,3.07
2023-05-15T22:34:15.174Z,2.83
2023-05-15T22:36:41.893Z,2.20
2023-05-15T22:39:08.882Z,2.00
2023-05-15T22:41:35.420Z,2.30
2023-05-15T22:44:02.826Z,2.40
2023-05-15T22:46:29.563Z,2.20
2023-05-15T22:48:58.965Z,2.10
2023-05-15T22:51:25.932Z,2.40
2023-05-15T22:53:52.551Z,2.77
2023-05-15T22:56:19.133Z,2.43
2023-05-15T22:58:45.960Z,2.00
2023-05-15T23:01:12.885Z,2.60
2023-05-15T23:03:39.514Z,2.60
2023-05-15T23:06:06.281Z,2.87
2023-05-15T23:08:32.789Z,2.47
2023-05-15T23:10:59.352Z,2.70
2023-05-15T23:13:25.998Z,2.53
2023-05-15T23:15:52.858Z,1.93
2023-05-15T23:18:19.502Z,2.23
2023-05-15T23:20:46.468Z,1.97
2023-05-15T23:23:13.065Z,2.00
2023-05-15T23:25:40.027Z,1.90
2023-05-15T23:28:06.579Z,1.83
2023-05-15T23:30:33.185Z,2.13
2023-05-15T23:32:59.789Z,1.90
2023-05-15T23:35:26.475Z,2.40
2023-05-15T23:37:53.027Z,2.03
2023-05-15T23:40:19.625Z,2.30
2023-05-15T23:42:46.718Z,2.00
2023-05-15T23:45:16.688Z,2.00
2023-05-15T23:47:43.340Z,2.30
2023-05-15T23:50:10.044Z,2.40
2023-05-15T23:52:36.659Z,2.63
2023-05-15T23:55:03.421Z,2.20
2023-05-15T23:57:30.451Z,2.30
2023-05-15T23:59:57.425Z,2.40
